Data for 04/12/2017

Time Sea-Level Adjusted Pressure Absolute Pressure Temperature Relative Humidity Dew Point   
(mb) (inHg) (mb) (inHg) (C) (F) (%) (C) (F)
00:05 1017 30.03 847 25.01 3.3 38 82 0.6 33
00:10 1017 30.03 847 25.01 3.3 37.9 82 0.4 32.8
00:15 1017 30.03 847 25.01 3.2 37.8 82 0.4 32.8
00:20 1017 30.03 846 24.98 3.3 37.9 81 0.3 32.6
00:25 1017 30.03 846 24.98 3.3 38 81 0.3 32.5
00:30 1017 30.03 846 24.98 3.3 37.9 80 0.2 32.4
00:35 1017 30.03 846 24.98 3.3 38 80 0.2 32.4
00:40 1017 30.03 846 24.98 3.3 37.9 80 0.2 32.4
00:45 1017 30.03 846 24.98 3.3 37.9 80 0.2 32.3
00:50 1017 30.03 846 24.98 3.2 37.8 80 0.1 32.1
00:55 1017 30.03 846 24.98 3.3 37.9 79 -0.1 31.8
01:00 1017 30.03 846 24.98 3.2 37.7 79 -0.1 31.9
01:05 1017 30.03 846 24.98 3.1 37.6 80 -0 31.9
01:10 1017 30.03 846 24.98 3.1 37.5 80 -0.1 31.8
01:15 1017 30.03 846 24.98 3.1 37.5 79 -0.2 31.6
01:20 1017 30.03 846 24.98 3 37.4 80 -0.2 31.7
01:25 1017 30.03 846 24.98 3 37.3 79 -0.3 31.4
01:30 1017 30.03 846 24.98 3 37.4 79 -0.3 31.5
01:35 1017 30.03 846 24.98 3 37.4 78 -0.6 31
01:40 1017 30.03 846 24.98 3 37.3 78 -0.5 31.2
01:45 1017 30.03 846 24.98 2.9 37.2 79 -0.4 31.2
01:50 1017 30.03 846 24.98 2.8 37.1 79 -0.5 31
01:55 1017 30.03 846 24.98 2.7 36.9 80 -0.4 31.3
02:00 1017 30.03 846 24.98 2.7 36.9 80 -0.5 31.2
02:05 1017 30.03 846 24.98 2.7 36.9 80 -0.4 31.3
02:10 1017 30.03 846 24.98 2.7 36.8 80 -0.4 31.3
02:15 1017 30.03 846 24.98 2.7 36.9 80 -0.4 31.2
02:20 1017 30.03 846 24.98 2.8 37 80 -0.4 31.3
02:25 1017 30.03 846 24.98 2.8 37 79 -0.5 31.1
02:30 1017 30.03 846 24.98 2.8 37.1 79 -0.4 31.3
02:35 1017 30.03 846 24.98 2.8 37 79 -0.4 31.2
02:40 1017 30.03 846 24.98 2.8 37 81 -0.2 31.6
02:45 1017 30.03 846 24.98 2.7 36.8 81 -0.2 31.6
02:50 1017 30.03 846 24.98 2.6 36.7 82 -0.2 31.6
02:55 1017 30.03 846 24.98 2.6 36.6 81 -0.3 31.5
03:00 1017 30.03 846 24.98 2.5 36.5 82 -0.3 31.5
03:05 1017 30.03 846 24.98 2.5 36.4 82 -0.4 31.3
03:10 1017 30.03 846 24.98 2.5 36.4 82 -0.4 31.4
03:15 1017 30.03 846 24.98 2.4 36.4 82 -0.4 31.3
03:20 1017 30.03 846 24.98 2.5 36.4 81 -0.4 31.2
03:25 1017 30.03 846 24.98 2.5 36.5 81 -0.4 31.2
03:30 1017 30.03 846 24.98 2.5 36.5 80 -0.5 31
03:35 1017 30.03 846 24.98 2.5 36.5 80 -0.6 30.8
03:40 1017 30.03 846 24.98 2.6 36.6 79 -0.7 30.7
03:45 1017 30.03 846 24.98 2.6 36.7 79 -0.7 30.8
03:50 1017 30.03 846 24.98 2.6 36.7 79 -0.7 30.7
03:55 1017 30.03 846 24.98 2.7 36.8 79 -0.6 30.9
04:00 1017 30.03 846 24.98 2.6 36.7 80 -0.6 31
04:05 1017 30.03 846 24.98 2.6 36.6 80 -0.5 31
04:10 1017 30.03 846 24.98 2.5 36.5 80 -0.6 31
04:15 1017 30.03 846 24.98 2.5 36.5 80 -0.5 31
04:20 1017 30.03 846 24.98 2.5 36.4 81 -0.5 31
04:25 1017 30.03 846 24.98 2.4 36.4 81 -0.5 31
04:30 1017 30.03 846 24.98 2.4 36.3 81 -0.5 31
04:35 1017 30.03 846 24.98 2.3 36.1 81 -0.6 31
04:40 1017 30.03 846 24.98 2.3 36.1 81 -0.6 30.9
04:45 1017 30.03 846 24.98 2.2 36 81 -0.6 30.9
04:50 1017 30.03 846 24.98 2.2 35.9 81 -0.7 30.7
04:55 1017 30.03 846 24.98 2.2 36 81 -0.7 30.7
05:00 1017 30.03 846 24.98 2.3 36.1 81 -0.7 30.8
05:05 1017 30.03 846 24.98 2.3 36.1 81 -0.7 30.7
05:10 1017 30.03 846 24.98 2.2 36 81 -0.7 30.7
05:15 1017 30.03 846 24.98 2.2 35.9 81 -0.8 30.6
05:20 1017 30.03 846 24.98 2.1 35.8 81 -0.8 30.6
05:25 1017 30.03 846 24.98 2 35.5 82 -0.8 30.5
05:30 1017 30.03 847 25.01 1.9 35.4 82 -0.9 30.5
05:35 1017 30.03 847 25.01 1.9 35.4 82 -0.8 30.5
05:40 1017 30.03 847 25.01 1.9 35.4 82 -0.8 30.5
05:45 1017 30.03 847 25.01 1.8 35.3 83 -0.8 30.6
05:50 1018 30.06 847 25.01 1.7 35.1 83 -0.9 30.4
05:55 1018 30.06 847 25.01 1.7 35.1 83 -0.9 30.5
06:00 1018 30.06 847 25.01 1.8 35.2 83 -0.9 30.5
06:05 1018 30.06 847 25.01 1.7 35.1 83 -0.8 30.5
06:10 1018 30.06 847 25.01 1.7 35.1 83 -0.9 30.4
06:15 1018 30.06 847 25.01 1.8 35.3 82 -0.8 30.5
06:20 1018 30.06 847 25.01 1.9 35.4 82 -0.8 30.5
06:25 1018 30.06 847 25.01 1.9 35.3 83 -0.8 30.6
06:30 1018 30.06 847 25.01 1.8 35.2 83 -0.8 30.6
06:35 1018 30.06 847 25.01 1.7 35 84 -0.8 30.6
06:40 1018 30.06 847 25.01 1.6 34.9 84 -0.8 30.6
06:45 1018 30.06 847 25.01 1.7 35 84 -0.8 30.6
06:50 1018 30.06 847 25.01 1.7 35 84 -0.7 30.7
06:55 1018 30.06 847 25.01 1.7 35.1 84 -0.8 30.6
07:00 1018 30.06 847 25.01 1.8 35.2 83 -0.8 30.6
07:05 1018 30.06 847 25.01 1.8 35.2 83 -0.8 30.6
07:10 1018 30.06 847 25.01 1.9 35.4 82 -0.8 30.5
07:15 1018 30.06 847 25.01 2 35.6 82 -0.7 30.7
07:20 1018 30.06 847 25.01 2 35.5 82 -0.8 30.6
07:25 1018 30.06 847 25.01 2.1 35.8 82 -0.7 30.7
07:30 1018 30.06 847 25.01 2.3 36.1 80 -0.8 30.6
07:35 1018 30.06 847 25.01 2.5 36.4 79 -0.8 30.6
07:40 1018 30.06 847 25.01 2.6 36.8 78 -0.8 30.5
07:45 1018 30.06 847 25.01 2.7 36.9 78 -0.7 30.8
07:50 1018 30.06 847 25.01 2.7 36.9 78 -0.7 30.8
07:55 1018 30.06 847 25.01 2.8 37 78 -0.6 30.9
08:00 1018 30.06 847 25.01 3 37.3 78 -0.5 31.2
08:05 1018 30.06 847 25.01 3 37.4 77 -0.6 30.9
08:10 1018 30.06 847 25.01 3.2 37.8 76 -0.6 31
08:15 1018 30.06 847 25.01 3.3 38 75 -0.6 30.9
08:20 1018 30.06 847 25.01 3.5 38.3 74 -0.7 30.7
08:25 1018 30.06 847 25.01 3.7 38.6 73 -0.7 30.8
08:30 1018 30.06 848 25.04 3.9 39.1 72 -0.7 30.7
08:35 1018 30.06 848 25.04 4.2 39.5 71 -0.5 31
08:40 1018 30.06 848 25.04 4.3 39.7 70 -0.7 30.8
08:45 1019 30.09 848 25.04 4.3 39.7 70 -0.6 30.8
08:50 1019 30.09 848 25.04 4.5 40 69 -0.7 30.8
08:55 1018 30.06 848 25.04 4.8 40.6 69 -0.4 31.2
09:00 1019 30.09 848 25.04 5.1 41.2 66 -0.6 30.9
09:05 1019 30.09 848 25.04 5.4 41.8 67 -0.3 31.5
09:10 1019 30.09 848 25.04 5.7 42.3 65 -0.3 31.5
09:15 1019 30.09 848 25.04 5.9 42.5 64 -0.5 31.2
09:20 1019 30.09 848 25.04 6.1 43 62 -0.5 31.1
09:25 1018 30.06 848 25.04 6.4 43.6 61 -0.5 31.2
09:30 1018 30.06 848 25.04 6.3 43.3 63 -0.3 31.5
09:35 1019 30.09 848 25.04 6.2 43.2 63 -0.3 31.5
09:40 1019 30.09 848 25.04 6.4 43.6 63 -0.2 31.7
09:45 1019 30.09 848 25.04 6.7 44.1 61 -0.2 31.6
09:50 1019 30.09 848 25.04 7 44.5 60 -0.2 31.6
09:55 1018 30.06 848 25.04 7.1 44.7 61 0 32
10:00 1018 30.06 848 25.04 7.2 45 59 -0.2 31.6
10:05 1018 30.06 848 25.04 7.7 45.9 57 -0.2 31.6
10:10 1018 30.06 848 25.04 8.2 46.7 55 -0.2 31.7
10:15 1018 30.06 848 25.04 8.8 47.8 54 0 32
10:20 1018 30.06 848 25.04 9 48.2 53 -0.1 31.8
10:25 1018 30.06 848 25.04 9.2 48.6 52 0 32
10:30 1018 30.06 848 25.04 9.4 49 53 0.4 32.8
10:35 1018 30.06 848 25.04 9.8 49.6 49 -0.4 31.3
10:40 1018 30.06 848 25.04 10.1 50.1 47 -0.8 30.5
10:45 1018 30.06 848 25.04 10.3 50.5 46 -0.8 30.5
10:50 1018 30.06 848 25.04 11 51.8 42 -1.2 29.8
10:55 1018 30.06 848 25.04 11.4 52.5 40 -1.8 28.7
11:00 1018 30.06 848 25.04 11.6 52.9 40 -1.4 29.5
11:05 1018 30.06 848 25.04 12.4 54.4 40 -0.8 30.6
11:10 1018 30.06 848 25.04 12.8 55 45 1.1 34.1
11:15 1018 30.06 847 25.01 12 53.5 47 1 33.8
11:20 1018 30.06 847 25.01 12.2 54 47 1.3 34.3
11:25 1018 30.06 847 25.01 12.3 54.2 49 2 35.5
11:30 1018 30.06 847 25.01 12.3 54.1 45 0.7 33.2
11:35 1018 30.06 847 25.01 12 53.6 47 1.2 34.1
11:40 1018 30.06 847 25.01 12.2 53.9 47 1.3 34.3
11:45 1018 30.06 847 25.01 12.4 54.3 45 0.8 33.4
11:50 1018 30.06 847 25.01 12.9 55.2 43 0.7 33.2
11:55 1018 30.06 847 25.01 13.2 55.7 43 1 33.8
12:00 1018 30.06 847 25.01 12.8 55 42 0.2 32.3
12:05 1018 30.06 847 25.01 13.3 56 41 0.2 32.4
12:10 1018 30.06 847 25.01 13.7 56.6 39 0.2 32.3
12:15 1018 30.06 847 25.01 14.1 57.5 37 -0.2 31.7
12:20 1018 30.06 847 25.01 13.9 57 39 0.2 32.4
12:25 1018 30.06 847 25.01 14 57.2 38 0.2 32.3
12:30 1018 30.06 847 25.01 13.6 56.4 36 -1 30.2
12:35 1018 30.06 847 25.01 14.5 58.2 33 -1.4 29.6
12:40 1018 30.06 847 25.01 14.3 57.7 36 -0.7 30.8
12:45 1018 30.06 847 25.01 14.8 58.6 36 -0 32
12:50 1018 30.06 847 25.01 15.6 60 32 -0.8 30.6
12:55 1018 30.06 847 25.01 15.6 60 29 -2.3 27.9
13:00 1018 30.06 847 25.01 14.1 57.3 32 -2.2 28.1
13:05 1017 30.03 847 25.01 14.7 58.4 29 -3.1 26.4
13:10 1017 30.03 847 25.01 14.5 58 30 -2.8 26.9
13:15 1017 30.03 847 25.01 13.9 57.1 31 -2.9 26.8
13:20 1017 30.03 846 24.98 14 57.2 30 -3.1 26.4
13:25 1017 30.03 846 24.98 14.3 57.8 28 -3.7 25.4
13:30 1017 30.03 846 24.98 14.2 57.5 29 -3.4 25.9
13:35 1017 30.03 846 24.98 14.2 57.5 29 -3.5 25.6
13:40 1017 30.03 846 24.98 14.1 57.5 28 -3.9 24.9
13:45 1017 30.03 846 24.98 15.4 59.7 28 -3.1 26.3
13:50 1017 30.03 846 24.98 15 59 31 -1.8 28.8
13:55 1017 30.03 846 24.98 14.3 57.8 42 1.6 34.8
14:00 1017 30.03 846 24.98 13.4 56.1 42 0.9 33.7
14:05 1017 30.03 846 24.98 13.3 56 42 0.8 33.4
14:10 1017 30.03 846 24.98 12.9 55.3 48 2.1 35.9
14:15 1017 30.03 846 24.98 12.4 54.4 48 1.8 35.2
14:20 1017 30.03 846 24.98 12.3 54.1 48 1.7 35.1
14:25 1017 30.03 846 24.98 12 53.6 50 2 35.7
14:30 1017 30.03 846 24.98 11.9 53.5 50 2 35.6
14:35 1017 30.03 846 24.98 12 53.6 51 2.1 35.8
14:40 1017 30.03 846 24.98 12 53.6 50 1.9 35.5
14:45 1017 30.03 846 24.98 12.2 53.9 50 2 35.6
14:50 1016 30 846 24.98 12.3 54.1 50 2.1 35.8
14:55 1016 30 846 24.98 12.3 54.1 49 2 35.7
15:00 1016 30 846 24.98 12.5 54.5 49 2.2 36
15:05 1016 30 846 24.98 12.4 54.2 50 2.2 35.9
15:10 1017 30.03 846 24.98 12.2 53.9 48 1.6 35
15:15 1017 30.03 846 24.98 12.6 54.7 48 1.9 35.4
15:20 1016 30 846 24.98 13 55.4 46 1.8 35.2
15:25 1016 30 846 24.98 13.2 55.7 46 1.9 35.4
15:30 1016 30 846 24.98 13.1 55.6 48 2.3 36.1
15:35 1016 30 846 24.98 12.9 55.1 47 1.9 35.5
15:40 1016 30 845 24.95 12.5 54.6 48 1.8 35.3
15:45 1016 30 846 24.98 12.5 54.5 48 1.9 35.5
15:50 1016 30 846 24.98 12.1 53.8 48 1.6 34.8
15:55 1016 30 845 24.95 12 53.6 48 1.5 34.7
16:00 1016 30 845 24.95 12.1 53.8 47 1.1 34
16:05 1016 30 845 24.95 12.4 54.2 48 1.6 34.9
16:10 1016 30 845 24.95 12.3 54.2 47 1.3 34.4
16:15 1016 30 845 24.95 12.6 54.6 47 1.5 34.7
16:20 1016 30 845 24.95 12.7 54.8 46 1.5 34.6
16:25 1016 30 845 24.95 12.7 54.9 47 1.7 35
16:30 1016 30 845 24.95 12.8 55.1 45 1.4 34.4
16:35 1016 30 845 24.95 12.7 54.9 46 1.3 34.4
16:40 1016 30 845 24.95 12.6 54.7 45 1.1 33.9
16:45 1016 30 845 24.95 12.7 54.9 45 1.1 34
16:50 1016 30 845 24.95 12.7 54.8 46 1.4 34.5
16:55 1016 30 845 24.95 13.1 55.5 44 1.3 34.4
17:00 1016 30 845 24.95 13.6 56.5 44 1.5 34.8
17:05 1016 30 845 24.95 13.6 56.5 44 1.6 34.9
17:10 1016 30 845 24.95 13.6 56.5 44 1.8 35.2
17:15 1016 30 845 24.95 13.4 56.2 44 1.6 34.9
17:20 1016 30 845 24.95 13.3 55.9 43 1.2 34.1
17:25 1016 30 845 24.95 13.2 55.8 43 1.1 34
17:30 1016 30 845 24.95 13.4 56 43 1 33.8
17:35 1016 30 845 24.95 13.7 56.6 43 1.3 34.3
17:40 1016 30 845 24.95 13.6 56.5 43 1.4 34.4
17:45 1016 30 845 24.95 13.5 56.3 44 1.4 34.6
17:50 1015 29.97 845 24.95 13.3 55.9 43 1 33.9
17:55 1015 29.97 845 24.95 13.1 55.6 43 0.9 33.6
18:00 1015 29.97 845 24.95 13.2 55.8 42 0.7 33.3
18:05 1015 29.97 845 24.95 13.5 56.2 42 0.9 33.5
18:10 1015 29.97 845 24.95 13.4 56 42 0.9 33.7
18:15 1015 29.97 845 24.95 13.3 55.9 42 0.7 33.3
18:20 1015 29.97 845 24.95 13.3 55.9 42 0.8 33.4
18:25 1015 29.97 845 24.95 13.2 55.8 42 0.7 33.2
18:30 1015 29.97 845 24.95 13.2 55.7 43 0.9 33.5
18:35 1015 29.97 845 24.95 13.2 55.7 42 0.6 33
18:40 1015 29.97 845 24.95 13.1 55.7 43 0.9 33.6
18:45 1015 29.97 845 24.95 13.1 55.5 43 0.9 33.6
18:50 1015 29.97 844 24.92 13.1 55.5 43 0.9 33.7
18:55 1015 29.97 845 24.95 13 55.4 44 1.1 33.9
19:00 1015 29.97 844 24.92 12.9 55.3 45 1.3 34.3
19:05 1015 29.97 844 24.92 12.9 55.2 45 1.3 34.3
19:10 1015 29.97 844 24.92 12.8 55.1 45 1.2 34.1
19:15 1015 29.97 844 24.92 12.7 54.9 45 1.2 34.2
19:20 1015 29.97 844 24.92 12.5 54.6 46 1.3 34.4
19:25 1015 29.97 844 24.92 12.5 54.4 46 1.3 34.3
19:30 1015 29.97 844 24.92 12.4 54.3 46 1.3 34.3
19:35 1015 29.97 844 24.92 12.3 54.1 47 1.5 34.6
19:40 1015 29.97 844 24.92 12.2 53.9 47 1.2 34.1
19:45 1015 29.97 844 24.92 12.2 53.9 47 1.2 34.2
19:50 1015 29.97 844 24.92 12.1 53.7 47 1.2 34.1
19:55 1015 29.97 844 24.92 12 53.5 48 1.3 34.3
20:00 1015 29.97 844 24.92 11.8 53.3 48 1.3 34.4
20:05 1015 29.97 844 24.92 11.7 53 48 1.1 34
20:10 1015 29.97 844 24.92 11.7 53 48 1 33.8
20:15 1015 29.97 844 24.92 11.6 52.8 49 1.2 34.2
20:20 1015 29.97 844 24.92 11.5 52.6 49 1.2 34.2
20:25 1015 29.97 844 24.92 11.4 52.4 49 1.2 34.1
20:30 1015 29.97 844 24.92 11.4 52.4 50 1.3 34.3
20:35 1015 29.97 844 24.92 11.2 52.2 50 1.3 34.3
20:40 1015 29.97 844 24.92 11.1 52 51 1.4 34.5
20:45 1015 29.97 844 24.92 11 51.8 52 1.5 34.7
20:50 1015 29.97 844 24.92 10.9 51.6 52 1.5 34.7
20:55 1015 29.97 844 24.92 10.8 51.4 52 1.5 34.7
21:00 1015 29.97 844 24.92 10.8 51.5 53 1.6 34.9
21:05 1015 29.97 844 24.92 10.8 51.5 53 1.7 35
21:10 1015 29.97 844 24.92 10.7 51.3 54 1.9 35.4
21:15 1015 29.97 844 24.92 10.6 51 55 2.1 35.7
21:20 1015 29.97 844 24.92 10.4 50.8 56 1.9 35.5
21:25 1015 29.97 845 24.95 10.4 50.7 56 2 35.6
21:30 1015 29.97 845 24.95 10.4 50.6 56 2.1 35.7
21:35 1015 29.97 845 24.95 10.3 50.6 57 2.3 36.1
21:40 1015 29.97 845 24.95 10.2 50.4 58 2.4 36.3
21:45 1015 29.97 845 24.95 10.1 50.2 58 2.3 36.1
21:50 1015 29.97 844 24.92 10.2 50.3 58 2.4 36.4
21:55 1015 29.97 844 24.92 10 50 60 2.6 36.6
22:00 1015 29.97 844 24.92 9.9 49.7 60 2.5 36.4
22:05 1015 29.97 844 24.92 9.7 49.5 61 2.6 36.6
22:10 1015 29.97 844 24.92 9.6 49.3 61 2.5 36.6
22:15 1015 29.97 844 24.92 9.5 49.2 62 2.6 36.7
22:20 1015 29.97 844 24.92 9.5 49 62 2.5 36.5
22:25 1015 29.97 844 24.92 9.4 49 62 2.5 36.4
22:30 1015 29.97 844 24.92 9.5 49 62 2.5 36.6
22:35 1015 29.97 844 24.92 9.3 48.8 62 2.4 36.3
22:40 1015 29.97 844 24.92 9.3 48.7 62 2.5 36.4
22:45 1015 29.97 844 24.92 9.2 48.6 62 2.4 36.3
22:50 1015 29.97 844 24.92 9.2 48.5 63 2.5 36.5
22:55 1015 29.97 844 24.92 9 48.2 63 2.4 36.3
23:00 1015 29.97 844 24.92 8.9 48.1 63 2.4 36.3
23:05 1015 29.97 844 24.92 8.9 48.1 63 2.3 36.2
23:10 1015 29.97 844 24.92 8.9 48 63 2.3 36.1
23:15 1014 29.94 844 24.92 8.9 48 63 2.3 36.1
23:20 1014 29.94 844 24.92 8.8 47.8 63 2.2 35.9
23:25 1014 29.94 844 24.92 8.8 47.8 63 2.2 35.9
23:30 1014 29.94 844 24.92 8.8 47.8 63 2.1 35.8
23:35 1014 29.94 843 24.89 8.8 47.8 63 2.1 35.8
23:40 1014 29.94 843 24.89 8.7 47.6 63 2 35.7
23:45 1014 29.94 843 24.89 8.6 47.6 63 2.1 35.7
23:50 1014 29.94 843 24.89 8.6 47.5 62 1.7 35.1
23:55 1014 29.94 843 24.89 8.7 47.7 62 1.9 35.5
24:00 1014 29.94 843 24.89 8.7 47.6 62 1.9 35.4